createdAt,value
2018-08-10T00:00:01.499Z,7.77
2018-08-10T00:00:14.014Z,7.77
2018-08-10T00:00:26.559Z,7.77
2018-08-10T00:00:39.008Z,7.77
2018-08-10T00:00:51.461Z,7.77
2018-08-10T00:01:03.986Z,7.77
2018-08-10T00:01:16.565Z,7.77
2018-08-10T00:01:29.093Z,7.77
2018-08-10T00:01:41.639Z,7.77
2018-08-10T00:01:54.170Z,7.77
2018-08-10T00:02:06.696Z,7.77
2018-08-10T00:02:19.229Z,7.77
2018-08-10T00:02:31.837Z,7.77
2018-08-10T00:02:44.359Z,7.77
2018-08-10T00:02:56.863Z,7.77
2018-08-10T00:03:09.407Z,7.77
2018-08-10T00:03:21.947Z,7.77
2018-08-10T00:03:34.485Z,7.77
2018-08-10T00:03:47.006Z,7.77
2018-08-10T00:03:59.499Z,7.77
2018-08-10T00:04:12.189Z,7.77
2018-08-10T00:04:24.735Z,7.77
2018-08-10T00:04:37.263Z,7.77
2018-08-10T00:04:49.789Z,7.77
2018-08-10T00:05:02.310Z,7.77
2018-08-10T00:05:14.833Z,7.77
2018-08-10T00:05:27.372Z,7.77
2018-08-10T00:05:39.927Z,7.77
2018-08-10T00:05:52.474Z,7.77
2018-08-10T00:06:05.073Z,10.2
2018-08-10T00:06:17.596Z,10.2
2018-08-10T00:06:30.125Z,10.2
2018-08-10T00:06:42.631Z,10.2
2018-08-10T00:06:55.143Z,10.2
2018-08-10T00:07:07.699Z,10.2
2018-08-10T00:07:20.243Z,10.2
2018-08-10T00:07:32.843Z,10.2
2018-08-10T00:07:45.401Z,10.2
2018-08-10T00:07:57.923Z,10.2
2018-08-10T00:08:10.451Z,10.2
2018-08-10T00:08:23.165Z,10.2
2018-08-10T00:08:35.705Z,10.2
2018-08-10T00:08:48.355Z,10.2
2018-08-10T00:09:01.796Z,10.2
2018-08-10T00:09:14.334Z,10.2
2018-08-10T00:09:26.862Z,10.2
2018-08-10T00:09:39.396Z,10.2
2018-08-10T00:09:51.931Z,10.2
2018-08-10T00:10:04.450Z,10.2
2018-08-10T00:10:16.978Z,10.2
2018-08-10T00:10:29.500Z,10.2
2018-08-10T00:10:42.031Z,10.2
2018-08-10T00:10:54.593Z,10.2
2018-08-10T00:11:07.139Z,10.2
2018-08-10T00:11:19.670Z,10.2
2018-08-10T00:11:32.199Z,10.2
2018-08-10T00:11:44.773Z,10.2
2018-08-10T00:11:57.283Z,10.2
2018-08-10T00:12:09.839Z,10.2
2018-08-10T00:12:22.360Z,10.2
2018-08-10T00:12:34.886Z,10.2
2018-08-10T00:12:47.415Z,10.2
2018-08-10T00:12:59.931Z,10.2
2018-08-10T00:13:12.472Z,10.2
2018-08-10T00:13:25.082Z,10.2
2018-08-10T00:13:37.600Z,10.2
2018-08-10T00:13:50.107Z,10.2
2018-08-10T00:14:02.785Z,10.2
2018-08-10T00:14:15.332Z,10.2
2018-08-10T00:14:27.868Z,10.2
2018-08-10T00:14:40.390Z,10.2
2018-08-10T00:14:52.911Z,10.2
2018-08-10T00:15:05.437Z,10.2
2018-08-10T00:15:17.956Z,10.2
2018-08-10T00:15:30.491Z,10.2
2018-08-10T00:15:43.014Z,10.2
2018-08-10T00:15:55.553Z,10.2
2018-08-10T00:16:08.095Z,11.65
2018-08-10T00:16:20.678Z,11.65
2018-08-10T00:16:33.206Z,11.65
2018-08-10T00:16:45.750Z,11.65
2018-08-10T00:16:58.355Z,11.65
2018-08-10T00:17:10.879Z,11.65
2018-08-10T00:17:23.434Z,11.65
2018-08-10T00:17:35.961Z,11.65
2018-08-10T00:17:48.504Z,11.65
2018-08-10T00:18:01.026Z,11.65
2018-08-10T00:18:13.588Z,11.65
2018-08-10T00:18:26.164Z,11.65
2018-08-10T00:18:38.871Z,11.65
2018-08-10T00:18:51.398Z,11.65
2018-08-10T00:19:03.979Z,11.65
2018-08-10T00:19:16.511Z,11.65
2018-08-10T00:19:29.056Z,11.65
2018-08-10T00:19:41.603Z,11.65
2018-08-10T00:19:54.127Z,11.65
2018-08-10T00:20:06.648Z,11.65
2018-08-10T00:20:19.211Z,11.65
2018-08-10T00:20:31.737Z,11.65
2018-08-10T00:20:44.255Z,11.65
2018-08-10T00:20:56.765Z,11.65
2018-08-10T00:21:09.273Z,11.65
2018-08-10T00:21:21.801Z,11.65
2018-08-10T00:21:34.317Z,11.65
2018-08-10T00:21:46.868Z,11.65
2018-08-10T00:21:59.474Z,11.65
2018-08-10T00:22:12.031Z,11.65
2018-08-10T00:22:24.531Z,11.65
2018-08-10T00:22:37.064Z,11.65
2018-08-10T00:22:49.569Z,11.65
2018-08-10T00:23:02.091Z,11.65
2018-08-10T00:23:14.602Z,11.65
2018-08-10T00:23:27.136Z,11.65
2018-08-10T00:23:39.662Z,11.65
2018-08-10T00:23:52.182Z,11.65
2018-08-10T00:24:04.692Z,11.65
2018-08-10T00:24:17.218Z,11.65
2018-08-10T00:24:29.741Z,11.65
2018-08-10T00:24:42.269Z,11.65
2018-08-10T00:24:54.774Z,11.65
2018-08-10T00:25:07.299Z,11.65
2018-08-10T00:25:19.851Z,11.65
2018-08-10T00:25:32.384Z,11.65
2018-08-10T00:25:44.898Z,11.65
2018-08-10T00:25:57.407Z,11.65
2018-08-10T00:26:09.919Z,10.73
2018-08-10T00:26:22.475Z,10.73
2018-08-10T00:26:34.997Z,10.73
2018-08-10T00:26:47.627Z,10.73
2018-08-10T00:27:00.141Z,10.73
2018-08-10T00:27:12.835Z,10.73
2018-08-10T00:27:25.375Z,10.73
2018-08-10T00:27:37.909Z,10.73
2018-08-10T00:27:50.566Z,10.73
2018-08-10T00:28:03.136Z,10.73
2018-08-10T00:28:15.658Z,10.73
2018-08-10T00:28:28.169Z,10.73
2018-08-10T00:28:40.698Z,10.73
2018-08-10T00:28:53.228Z,10.73
2018-08-10T00:29:05.729Z,10.73
2018-08-10T00:29:18.245Z,10.73
2018-08-10T00:29:30.886Z,10.73
2018-08-10T00:29:43.419Z,10.73
2018-08-10T00:29:55.940Z,10.73
2018-08-10T00:30:08.468Z,10.73
2018-08-10T00:30:21.002Z,10.73
2018-08-10T00:30:33.516Z,10.73
2018-08-10T00:30:46.176Z,10.73
2018-08-10T00:30:58.696Z,10.73
2018-08-10T00:31:11.219Z,10.73
2018-08-10T00:31:23.743Z,10.73
2018-08-10T00:31:36.285Z,10.73
2018-08-10T00:34:07.147Z,10.73
2018-08-10T00:34:19.654Z,10.73
2018-08-10T00:34:32.174Z,10.73
2018-08-10T00:34:44.701Z,10.73
2018-08-10T00:34:57.242Z,10.73
2018-08-10T00:35:09.769Z,10.73
2018-08-10T00:35:22.300Z,10.73
2018-08-10T00:35:34.818Z,10.73
2018-08-10T00:35:47.332Z,10.73
2018-08-10T00:35:59.853Z,9.25
2018-08-10T00:36:12.359Z,9.25
2018-08-10T00:36:24.876Z,9.25
2018-08-10T00:36:37.390Z,9.25
2018-08-10T00:36:49.910Z,9.25
2018-08-10T00:37:02.434Z,9.25
2018-08-10T00:37:14.939Z,9.25
2018-08-10T00:37:27.442Z,9.25
2018-08-10T00:37:39.972Z,9.25
2018-08-10T00:37:53.489Z,9.25
2018-08-10T00:38:06.018Z,9.25
2018-08-10T00:38:18.538Z,9.25
2018-08-10T00:38:31.078Z,9.25
2018-08-10T00:38:43.611Z,9.25
2018-08-10T00:38:56.118Z,9.25
2018-08-10T00:39:08.623Z,9.25
2018-08-10T00:39:21.131Z,9.25
2018-08-10T00:39:33.793Z,9.25
2018-08-10T00:39:46.330Z,9.25
2018-08-10T00:39:58.853Z,9.25
2018-08-10T00:40:11.429Z,9.25
2018-08-10T00:40:23.976Z,9.25
2018-08-10T00:40:36.497Z,9.25
2018-08-10T00:40:49.027Z,9.25
2018-08-10T00:41:01.564Z,9.25
2018-08-10T00:41:14.103Z,9.25
2018-08-10T00:41:26.614Z,9.25
2018-08-10T00:41:39.214Z,9.25
2018-08-10T00:41:51.766Z,9.25
2018-08-10T00:42:04.271Z,9.25
2018-08-10T00:42:16.852Z,9.25
2018-08-10T00:42:29.394Z,9.25
2018-08-10T00:42:41.966Z,9.25
2018-08-10T00:42:54.509Z,9.25
2018-08-10T00:43:07.039Z,9.25
2018-08-10T00:43:19.576Z,9.25
2018-08-10T00:43:32.096Z,9.25
2018-08-10T00:43:44.704Z,9.25
2018-08-10T00:43:57.230Z,9.25
2018-08-10T00:44:09.735Z,9.25
2018-08-10T00:44:22.281Z,9.25
2018-08-10T00:44:34.842Z,9.25
2018-08-10T00:44:47.355Z,9.25
2018-08-10T00:44:59.938Z,9.25
2018-08-10T00:45:12.454Z,9.25
2018-08-10T00:45:24.977Z,9.25
2018-08-10T00:45:37.495Z,9.25
2018-08-10T00:45:50.039Z,9.25
2018-08-10T00:46:02.562Z,8.69
2018-08-10T00:46:15.135Z,8.69
2018-08-10T00:46:27.671Z,8.69
2018-08-10T00:46:40.175Z,8.69
2018-08-10T00:46:52.701Z,8.69
2018-08-10T00:47:05.207Z,8.69
2018-08-10T00:47:17.719Z,8.69
2018-08-10T00:47:30.264Z,8.69
2018-08-10T00:47:42.770Z,8.69
2018-08-10T00:47:55.316Z,8.69
2018-08-10T00:48:07.851Z,8.69
2018-08-10T00:48:20.377Z,8.69
2018-08-10T00:48:32.905Z,8.69
2018-08-10T00:48:45.431Z,8.69
2018-08-10T00:48:58.182Z,8.69
2018-08-10T00:49:10.710Z,8.69
2018-08-10T00:49:23.242Z,8.69
2018-08-10T00:49:35.760Z,8.69
2018-08-10T00:49:48.343Z,8.69
2018-08-10T00:50:00.838Z,8.69
2018-08-10T00:50:13.358Z,8.69
2018-08-10T00:50:26.049Z,8.69
2018-08-10T00:50:38.580Z,8.69
2018-08-10T00:50:51.118Z,8.69
2018-08-10T00:51:03.628Z,8.69
2018-08-10T00:51:16.148Z,8.69
2018-08-10T00:51:28.657Z,8.69
2018-08-10T00:51:41.300Z,8.69
2018-08-10T00:51:53.802Z,8.69
2018-08-10T00:52:06.319Z,8.69
2018-08-10T00:52:18.847Z,8.69
2018-08-10T00:52:31.574Z,8.69
2018-08-10T00:52:44.094Z,8.69
2018-08-10T00:52:56.613Z,8.69
2018-08-10T00:53:09.143Z,8.69
2018-08-10T00:53:21.643Z,8.69
2018-08-10T00:53:34.155Z,8.69
2018-08-10T00:53:46.659Z,8.69
2018-08-10T00:53:59.183Z,8.69
2018-08-10T00:54:11.712Z,8.69
2018-08-10T00:54:24.233Z,8.69
2018-08-10T00:54:36.769Z,8.69
2018-08-10T00:54:49.260Z,8.69
2018-08-10T00:55:01.775Z,8.69
2018-08-10T00:55:14.308Z,8.69
2018-08-10T00:55:26.897Z,8.69
2018-08-10T00:55:39.433Z,8.69
2018-08-10T00:55:51.964Z,8.69
2018-08-10T00:56:04.465Z,9.4
2018-08-10T00:56:16.997Z,9.4
2018-08-10T00:56:29.513Z,9.4
2018-08-10T00:56:42.306Z,9.4
2018-08-10T00:56:54.806Z,9.4
2018-08-10T00:57:07.306Z,9.4
2018-08-10T00:57:19.915Z,9.4
2018-08-10T00:57:32.421Z,9.4
2018-08-10T00:57:44.922Z,9.4
2018-08-10T00:57:57.498Z,9.4
2018-08-10T00:58:10.020Z,9.4
2018-08-10T00:58:22.556Z,9.4
2018-08-10T00:58:35.080Z,9.4
2018-08-10T00:58:47.612Z,9.4
2018-08-10T00:59:00.147Z,9.4
2018-08-10T00:59:12.660Z,9.4
2018-08-10T00:59:25.221Z,9.4
2018-08-10T00:59:37.721Z,9.4
2018-08-10T00:59:50.221Z,9.4
2018-08-10T01:00:02.737Z,9.4
2018-08-10T01:00:15.268Z,9.4
2018-08-10T01:00:27.802Z,9.4
2018-08-10T01:00:40.339Z,9.4
2018-08-10T01:00:52.883Z,9.4
2018-08-10T01:01:05.445Z,9.4
2018-08-10T01:01:17.981Z,9.4
2018-08-10T01:01:30.554Z,9.4
2018-08-10T01:01:43.076Z,9.4
2018-08-10T01:01:55.633Z,9.4
2018-08-10T01:02:08.159Z,9.4
2018-08-10T01:02:20.685Z,9.4
2018-08-10T01:02:33.306Z,9.4
2018-08-10T01:02:45.825Z,9.4
2018-08-10T01:02:58.343Z,9.4
2018-08-10T01:03:10.870Z,9.4
2018-08-10T01:03:23.384Z,9.4
2018-08-10T01:03:35.916Z,9.4
2018-08-10T01:03:48.422Z,9.4
2018-08-10T01:04:00.930Z,9.4
2018-08-10T01:04:13.620Z,9.4
2018-08-10T01:04:26.138Z,9.4
2018-08-10T01:04:38.659Z,9.4
2018-08-10T01:04:51.173Z,9.4
2018-08-10T01:05:03.741Z,9.4
2018-08-10T01:05:16.272Z,9.4
2018-08-10T01:05:28.827Z,9.4
2018-08-10T01:05:41.353Z,9.4
2018-08-10T01:05:53.871Z,9.4
2018-08-10T01:06:06.376Z,17.47
2018-08-10T01:06:19.061Z,17.47
2018-08-10T01:06:31.598Z,17.47
2018-08-10T01:06:44.097Z,17.47
2018-08-10T01:06:56.619Z,17.47
2018-08-10T01:07:09.137Z,17.47
2018-08-10T01:07:21.697Z,17.47
2018-08-10T01:07:34.208Z,17.47
2018-08-10T01:07:46.751Z,17.47
2018-08-10T01:07:59.312Z,17.47
2018-08-10T01:08:11.834Z,17.47
2018-08-10T01:08:24.518Z,17.47
2018-08-10T01:08:37.034Z,17.47
2018-08-10T01:08:49.569Z,17.47
2018-08-10T01:09:02.083Z,17.47
2018-08-10T01:09:14.637Z,17.47
2018-08-10T01:09:27.171Z,17.47
2018-08-10T01:09:39.713Z,17.47
2018-08-10T01:09:52.238Z,17.47
2018-08-10T01:10:04.810Z,17.47
2018-08-10T01:10:17.316Z,17.47
2018-08-10T01:10:29.850Z,17.47
2018-08-10T01:10:42.374Z,17.47
2018-08-10T01:10:54.857Z,17.47
2018-08-10T01:11:07.366Z,17.47
2018-08-10T01:11:19.925Z,17.47
2018-08-10T01:11:32.440Z,17.47
2018-08-10T01:11:44.962Z,17.47
2018-08-10T01:11:57.519Z,17.47
2018-08-10T01:12:10.035Z,17.47
2018-08-10T01:12:22.547Z,17.47
2018-08-10T01:12:35.051Z,17.47
2018-08-10T01:12:47.572Z,17.47
2018-08-10T01:13:00.119Z,17.47
2018-08-10T01:13:12.989Z,17.47
2018-08-10T01:13:27.024Z,17.47
2018-08-10T01:13:40.806Z,17.47
2018-08-10T01:13:53.501Z,17.47
2018-08-10T01:14:06.034Z,17.47
2018-08-10T01:14:18.670Z,17.47
2018-08-10T01:14:31.179Z,17.47
2018-08-10T01:14:43.698Z,17.47
2018-08-10T01:14:56.289Z,17.47
2018-08-10T01:15:08.848Z,17.47
2018-08-10T01:15:21.390Z,17.47
2018-08-10T01:15:33.920Z,17.47
2018-08-10T01:15:46.450Z,17.47
2018-08-10T01:15:58.965Z,17.47
2018-08-10T01:16:11.525Z,9.29
2018-08-10T01:16:24.032Z,9.29
2018-08-10T01:16:36.552Z,9.29
2018-08-10T01:16:49.078Z,9.29
2018-08-10T01:17:01.791Z,9.29
2018-08-10T01:17:14.302Z,9.29
2018-08-10T01:17:26.826Z,9.29
2018-08-10T01:17:39.375Z,9.29
2018-08-10T01:17:51.917Z,9.29
2018-08-10T01:18:04.440Z,9.29
2018-08-10T01:18:16.978Z,9.29
2018-08-10T01:18:29.501Z,9.29
2018-08-10T01:18:42.041Z,9.29
2018-08-10T01:18:54.569Z,9.29
2018-08-10T01:19:07.765Z,9.29
2018-08-10T01:19:21.728Z,9.29
2018-08-10T01:19:35.541Z,9.29
2018-08-10T01:19:48.062Z,9.29
2018-08-10T01:20:00.586Z,9.29
2018-08-10T01:20:13.117Z,9.29
2018-08-10T01:20:25.655Z,9.29
2018-08-10T01:20:38.163Z,9.29
2018-08-10T01:20:50.674Z,9.29
2018-08-10T01:21:03.209Z,9.29
2018-08-10T01:21:15.741Z,9.29
2018-08-10T01:21:28.300Z,9.29
2018-08-10T01:21:40.824Z,9.29
2018-08-10T01:21:53.359Z,9.29
2018-08-10T01:22:06.232Z,9.29
2018-08-10T01:22:18.738Z,9.29
2018-08-10T01:22:31.248Z,9.29
2018-08-10T01:22:43.778Z,9.29
2018-08-10T01:22:56.292Z,9.29
2018-08-10T01:23:08.789Z,9.29
2018-08-10T01:23:21.322Z,9.29
2018-08-10T01:23:33.839Z,9.29
2018-08-10T01:23:46.347Z,9.29
2018-08-10T01:23:58.853Z,9.29
2018-08-10T01:24:11.376Z,9.29
2018-08-10T01:24:23.992Z,9.29
2018-08-10T01:24:36.506Z,9.29
2018-08-10T01:24:49.024Z,9.29
2018-08-10T01:25:01.570Z,9.29
2018-08-10T01:25:14.093Z,9.29
2018-08-10T01:25:26.775Z,9.29
2018-08-10T01:25:39.348Z,9.29
2018-08-10T01:25:51.850Z,9.29
2018-08-10T01:26:04.359Z,9.29
2018-08-10T01:26:16.875Z,7.65
2018-08-10T01:26:29.422Z,7.65
2018-08-10T01:26:41.961Z,7.65
2018-08-10T01:26:54.512Z,7.65
2018-08-10T01:27:07.037Z,7.65
2018-08-10T01:27:19.888Z,7.65
2018-08-10T01:27:32.415Z,7.65
2018-08-10T01:27:44.969Z,7.65
2018-08-10T01:27:57.469Z,7.65
2018-08-10T01:28:10.003Z,7.65
2018-08-10T01:28:23.195Z,7.65
2018-08-10T01:28:37.112Z,7.65
2018-08-10T01:28:51.052Z,7.65
2018-08-10T01:29:05.229Z,7.65
2018-08-10T01:29:17.760Z,7.65
2018-08-10T01:29:30.477Z,7.65
2018-08-10T01:29:42.991Z,7.65
2018-08-10T01:29:55.501Z,7.65
2018-08-10T01:30:08.048Z,7.65
2018-08-10T01:30:20.582Z,7.65
2018-08-10T01:30:33.135Z,7.65
2018-08-10T01:30:45.807Z,7.65
2018-08-10T01:30:58.347Z,7.65
2018-08-10T01:31:10.863Z,7.65
2018-08-10T01:31:23.424Z,7.65
2018-08-10T01:31:35.953Z,7.65
2018-08-10T01:31:48.469Z,7.65
2018-08-10T01:32:00.969Z,7.65
2018-08-10T01:32:13.493Z,7.65
2018-08-10T01:32:26.019Z,7.65
2018-08-10T01:32:38.717Z,7.65
2018-08-10T01:32:51.241Z,7.65
2018-08-10T01:33:03.780Z,7.65
2018-08-10T01:33:16.323Z,7.65
2018-08-10T01:33:28.841Z,7.65
2018-08-10T01:33:41.356Z,7.65
2018-08-10T01:33:54.067Z,7.65
2018-08-10T01:34:06.590Z,7.65
2018-08-10T01:34:19.103Z,7.65
2018-08-10T01:34:31.599Z,7.65
2018-08-10T01:34:44.109Z,7.65
2018-08-10T01:34:56.631Z,7.65
2018-08-10T01:35:09.162Z,7.65
2018-08-10T01:35:21.684Z,7.65
2018-08-10T01:35:34.191Z,7.65
2018-08-10T01:35:46.737Z,7.65
2018-08-10T01:35:59.310Z,7.65
2018-08-10T01:36:11.827Z,8.7
2018-08-10T01:36:24.372Z,8.7
2018-08-10T01:36:36.897Z,8.7
2018-08-10T01:36:49.407Z,8.7
2018-08-10T01:37:01.922Z,8.7
2018-08-10T01:37:14.430Z,8.7
2018-08-10T01:37:26.934Z,8.7
2018-08-10T01:37:39.431Z,8.7
2018-08-10T01:37:51.987Z,8.7
2018-08-10T01:38:04.522Z,8.7
2018-08-10T01:38:17.060Z,8.7
2018-08-10T01:38:29.560Z,8.7
2018-08-10T01:38:42.071Z,8.7
2018-08-10T01:38:54.596Z,8.7
2018-08-10T01:39:07.116Z,8.7
2018-08-10T01:39:19.655Z,8.7
2018-08-10T01:39:32.320Z,8.7
2018-08-10T01:39:44.859Z,8.7
2018-08-10T01:39:57.371Z,8.7
2018-08-10T01:40:09.887Z,8.7
2018-08-10T01:40:22.401Z,8.7
2018-08-10T01:40:34.939Z,8.7
2018-08-10T01:40:47.482Z,8.7
2018-08-10T01:41:00.004Z,8.7
2018-08-10T01:41:12.535Z,8.7
2018-08-10T01:41:25.059Z,8.7
2018-08-10T01:41:37.626Z,8.7
2018-08-10T01:41:50.143Z,8.7
2018-08-10T01:42:02.648Z,8.7
2018-08-10T01:42:15.163Z,8.7
2018-08-10T01:42:27.686Z,8.7
2018-08-10T01:42:40.201Z,8.7
2018-08-10T01:42:52.707Z,8.7
2018-08-10T01:43:05.245Z,8.7
2018-08-10T01:43:17.764Z,8.7
2018-08-10T01:43:30.309Z,8.7
2018-08-10T01:43:42.802Z,8.7
2018-08-10T01:43:55.367Z,8.7
2018-08-10T01:44:07.872Z,8.7
2018-08-10T01:44:20.398Z,8.7
2018-08-10T01:44:32.914Z,8.7
2018-08-10T01:44:45.438Z,8.7
2018-08-10T01:44:57.954Z,8.7
2018-08-10T01:45:10.452Z,8.7
2018-08-10T01:45:22.978Z,8.7
2018-08-10T01:45:35.495Z,8.7
2018-08-10T01:45:48.037Z,8.7
2018-08-10T01:46:00.662Z,8.7
2018-08-10T01:46:13.204Z,7.55
2018-08-10T01:46:25.720Z,7.55
2018-08-10T01:46:38.236Z,7.55
2018-08-10T01:46:50.784Z,7.55
2018-08-10T01:47:03.312Z,7.55
2018-08-10T01:47:15.829Z,7.55
2018-08-10T01:47:28.369Z,7.55
2018-08-10T01:47:40.905Z,7.55
2018-08-10T01:47:53.426Z,7.55
2018-08-10T01:48:05.953Z,7.55
2018-08-10T01:48:18.478Z,7.55
2018-08-10T01:48:30.990Z,7.55
2018-08-10T01:48:43.499Z,7.55
2018-08-10T01:48:56.015Z,7.55
2018-08-10T01:49:08.675Z,7.55
2018-08-10T01:49:21.359Z,7.55
2018-08-10T01:49:33.893Z,7.55
2018-08-10T01:49:46.419Z,7.55
2018-08-10T01:49:58.940Z,7.55
2018-08-10T01:50:11.507Z,7.55
2018-08-10T01:50:24.044Z,7.55
2018-08-10T01:50:36.565Z,7.55
2018-08-10T01:50:49.125Z,7.55
2018-08-10T01:51:01.643Z,7.55
2018-08-10T01:51:14.151Z,7.55
2018-08-10T01:51:26.678Z,7.55
2018-08-10T01:51:39.372Z,7.55
2018-08-10T01:51:51.890Z,7.55
2018-08-10T01:52:04.391Z,7.55
2018-08-10T01:52:16.923Z,7.55
2018-08-10T01:52:29.493Z,7.55
2018-08-10T01:52:42.006Z,7.55
2018-08-10T01:52:54.525Z,7.55
2018-08-10T01:53:07.037Z,7.55
2018-08-10T01:53:19.569Z,7.55
2018-08-10T01:53:32.089Z,7.55
2018-08-10T01:53:44.638Z,7.55
2018-08-10T01:53:57.159Z,7.55
2018-08-10T01:54:09.671Z,7.55
2018-08-10T01:54:22.184Z,7.55
2018-08-10T01:54:34.733Z,7.55
2018-08-10T01:54:47.239Z,7.55
2018-08-10T01:54:59.745Z,7.55
2018-08-10T01:55:12.274Z,7.55
2018-08-10T01:55:24.815Z,7.55
2018-08-10T01:55:37.380Z,7.55
2018-08-10T01:55:49.899Z,7.55
2018-08-10T01:56:02.420Z,7.55
2018-08-10T01:56:14.945Z,6.75
2018-08-10T01:56:27.507Z,6.75
2018-08-10T01:56:40.143Z,6.75
2018-08-10T01:56:52.829Z,6.75
2018-08-10T01:57:05.356Z,6.75
2018-08-10T01:57:17.861Z,6.75
2018-08-10T01:57:30.391Z,6.75
2018-08-10T01:57:42.893Z,6.75
2018-08-10T01:57:55.410Z,6.75
2018-08-10T01:58:07.937Z,6.75
2018-08-10T01:58:20.457Z,6.75
2018-08-10T01:58:33.003Z,6.75
2018-08-10T01:58:45.548Z,6.75
2018-08-10T01:58:58.062Z,6.75
2018-08-10T01:59:10.574Z,6.75
2018-08-10T01:59:23.084Z,6.75
2018-08-10T01:59:35.649Z,6.75
2018-08-10T01:59:48.172Z,6.75
2018-08-10T02:00:00.679Z,6.75
2018-08-10T02:00:13.284Z,6.75
2018-08-10T02:00:25.840Z,6.75
2018-08-10T02:00:38.376Z,6.75
2018-08-10T02:00:50.923Z,6.75
2018-08-10T02:01:03.486Z,6.75
2018-08-10T02:01:16.033Z,6.75
2018-08-10T02:01:28.614Z,6.75
2018-08-10T02:01:41.163Z,6.75
2018-08-10T02:01:53.657Z,6.75
2018-08-10T02:02:06.167Z,6.75
2018-08-10T02:02:18.674Z,6.75
2018-08-10T02:02:31.334Z,6.75
2018-08-10T02:02:43.835Z,6.75
2018-08-10T02:02:56.339Z,6.75
2018-08-10T02:03:08.846Z,6.75
2018-08-10T02:03:21.367Z,6.75
2018-08-10T02:03:33.898Z,6.75
2018-08-10T02:03:46.434Z,6.75
2018-08-10T02:03:58.957Z,6.75
2018-08-10T02:04:11.640Z,6.75
2018-08-10T02:04:24.187Z,6.75
2018-08-10T02:04:36.717Z,6.75
2018-08-10T02:04:49.237Z,6.75
2018-08-10T02:05:01.771Z,6.75
2018-08-10T02:05:14.364Z,6.75
2018-08-10T02:05:26.911Z,6.75
2018-08-10T02:05:39.493Z,6.75
2018-08-10T02:05:52.015Z,6.75
2018-08-10T02:06:04.516Z,6.75
2018-08-10T02:06:17.211Z,10.2
2018-08-10T02:06:29.737Z,10.2
2018-08-10T02:06:42.259Z,10.2
2018-08-10T02:06:54.841Z,10.2
2018-08-10T02:07:07.351Z,10.2
2018-08-10T02:07:19.878Z,10.2
2018-08-10T02:07:32.398Z,10.2
2018-08-10T02:07:44.928Z,10.2
2018-08-10T02:07:57.447Z,10.2
2018-08-10T02:08:09.957Z,10.2
2018-08-10T02:08:22.597Z,10.2
2018-08-10T02:08:35.158Z,10.2
2018-08-10T02:08:47.693Z,10.2
2018-08-10T02:09:00.211Z,10.2
2018-08-10T02:09:12.720Z,10.2
2018-08-10T02:09:25.268Z,10.2
2018-08-10T02:09:37.791Z,10.2
2018-08-10T02:09:50.343Z,10.2
2018-08-10T02:10:02.889Z,10.2
2018-08-10T02:10:15.431Z,10.2
2018-08-10T02:10:27.946Z,10.2
2018-08-10T02:10:40.611Z,10.2
2018-08-10T02:10:53.155Z,10.2
2018-08-10T02:11:05.678Z,10.2
2018-08-10T02:11:18.206Z,10.2
2018-08-10T02:11:30.748Z,10.2
2018-08-10T02:11:43.296Z,10.2
2018-08-10T02:11:55.835Z,10.2
2018-08-10T02:12:08.365Z,10.2
2018-08-10T02:12:20.916Z,10.2
2018-08-10T02:12:33.515Z,10.2
2018-08-10T02:12:46.101Z,10.2
2018-08-10T02:12:58.619Z,10.2
2018-08-10T02:13:11.147Z,10.2
2018-08-10T02:13:23.676Z,10.2
2018-08-10T02:13:36.194Z,10.2
2018-08-10T02:13:48.721Z,10.2
2018-08-10T02:14:01.434Z,10.2
2018-08-10T02:14:13.953Z,10.2
2018-08-10T02:14:26.455Z,10.2
2018-08-10T02:14:39.001Z,10.2
2018-08-10T02:14:51.551Z,10.2
2018-08-10T02:15:04.093Z,10.2
2018-08-10T02:15:16.621Z,10.2
2018-08-10T02:15:29.200Z,10.2
2018-08-10T02:15:41.762Z,10.2
2018-08-10T02:15:54.283Z,10.2
2018-08-10T02:16:06.819Z,10.2
2018-08-10T02:16:19.371Z,5.12
2018-08-10T02:16:31.883Z,5.12
2018-08-10T02:16:44.396Z,5.12
2018-08-10T02:16:57.071Z,5.12
2018-08-10T02:17:09.610Z,5.12
2018-08-10T02:17:22.165Z,5.12
2018-08-10T02:17:34.689Z,5.12
2018-08-10T02:17:47.209Z,5.12
2018-08-10T02:17:59.731Z,5.12
2018-08-10T02:18:12.341Z,5.12
2018-08-10T02:18:24.935Z,5.12
2018-08-10T02:18:37.472Z,5.12
2018-08-10T02:18:49.997Z,5.12
2018-08-10T02:19:02.532Z,5.12
2018-08-10T02:19:15.053Z,5.12
2018-08-10T02:19:27.630Z,5.12
2018-08-10T02:19:40.157Z,5.12
2018-08-10T02:19:52.701Z,5.12
2018-08-10T02:20:05.207Z,5.12
2018-08-10T02:20:17.750Z,5.12
2018-08-10T02:20:30.279Z,5.12
2018-08-10T02:20:42.816Z,5.12
2018-08-10T02:20:55.347Z,5.12
2018-08-10T02:21:07.874Z,5.12
2018-08-10T02:21:20.385Z,5.12
2018-08-10T02:21:32.986Z,5.12
2018-08-10T02:21:45.582Z,5.12
2018-08-10T02:21:58.126Z,5.12
2018-08-10T02:22:10.836Z,5.12
2018-08-10T02:22:23.357Z,5.12
2018-08-10T02:22:35.896Z,5.12
2018-08-10T02:22:48.446Z,5.12
2018-08-10T02:23:01.080Z,5.12
2018-08-10T02:23:13.601Z,5.12
2018-08-10T02:23:26.173Z,5.12
2018-08-10T02:23:38.697Z,5.12
2018-08-10T02:23:51.234Z,5.12
2018-08-10T02:24:03.804Z,5.12
2018-08-10T02:24:16.333Z,5.12
2018-08-10T02:24:28.839Z,5.12
2018-08-10T02:24:41.762Z,5.12
2018-08-10T02:24:55.136Z,5.12
2018-08-10T02:25:07.672Z,5.12
2018-08-10T02:25:20.216Z,5.12
2018-08-10T02:25:32.754Z,5.12
2018-08-10T02:25:45.266Z,5.12
2018-08-10T02:25:57.793Z,5.12
2018-08-10T02:26:10.320Z,5.12
2018-08-10T02:26:22.843Z,5.65
2018-08-10T02:26:35.368Z,5.65
2018-08-10T02:26:47.932Z,5.65
2018-08-10T02:27:00.444Z,5.65
2018-08-10T02:27:12.962Z,5.65
2018-08-10T02:27:25.543Z,5.65
2018-08-10T02:27:38.068Z,5.65
2018-08-10T02:27:50.683Z,5.65
2018-08-10T02:28:03.213Z,5.65
2018-08-10T02:28:15.775Z,5.65
2018-08-10T02:28:28.324Z,5.65
2018-08-10T02:28:40.865Z,5.65
2018-08-10T02:28:53.369Z,5.65
2018-08-10T02:29:05.893Z,5.65
2018-08-10T02:29:18.431Z,5.65
2018-08-10T02:29:31.105Z,5.65
2018-08-10T02:29:43.629Z,5.65
2018-08-10T02:29:56.140Z,5.65
2018-08-10T02:30:08.711Z,5.65
2018-08-10T02:30:21.374Z,5.65
2018-08-10T02:30:33.969Z,5.65
2018-08-10T02:30:46.602Z,5.65
2018-08-10T02:30:59.191Z,5.65
2018-08-10T02:31:11.774Z,5.65
2018-08-10T02:31:24.339Z,5.65
2018-08-10T02:31:36.931Z,5.65
2018-08-10T02:31:49.536Z,5.65
2018-08-10T02:32:02.093Z,5.65
2018-08-10T02:32:14.624Z,5.65
2018-08-10T02:32:27.185Z,5.65
2018-08-10T02:32:39.975Z,5.65
2018-08-10T02:32:52.590Z,5.65
2018-08-10T02:33:05.188Z,5.65
2018-08-10T02:33:17.745Z,5.65
2018-08-10T02:33:30.388Z,5.65
2018-08-10T02:33:42.934Z,5.65
2018-08-10T02:33:55.585Z,5.65
2018-08-10T02:34:08.107Z,5.65
2018-08-10T02:34:20.655Z,5.65
2018-08-10T02:34:33.181Z,5.65
2018-08-10T02:34:45.716Z,5.65
2018-08-10T02:34:58.259Z,5.65
2018-08-10T02:35:10.834Z,5.65
2018-08-10T02:35:23.438Z,5.65
2018-08-10T02:35:35.964Z,5.65
2018-08-10T02:35:48.504Z,5.65
2018-08-10T02:36:01.145Z,5.65
2018-08-10T02:36:13.679Z,5.77
2018-08-10T02:36:26.380Z,5.77
2018-08-10T02:36:38.968Z,5.77
2018-08-10T02:36:51.535Z,5.77
2018-08-10T02:37:04.083Z,5.77
2018-08-10T02:37:16.702Z,5.77
2018-08-10T02:37:29.286Z,5.77
2018-08-10T02:37:41.894Z,5.77
2018-08-10T02:37:54.474Z,5.77
2018-08-10T02:38:07.008Z,5.77
2018-08-10T02:38:19.541Z,5.77
2018-08-10T02:38:32.107Z,5.77
2018-08-10T02:38:44.669Z,5.77
2018-08-10T02:38:57.308Z,5.77
2018-08-10T02:39:09.841Z,5.77
2018-08-10T02:39:22.551Z,5.77
2018-08-10T02:39:35.096Z,5.77
2018-08-10T02:39:47.639Z,5.77
2018-08-10T02:40:00.174Z,5.77
2018-08-10T02:40:12.771Z,5.77
2018-08-10T02:40:25.366Z,5.77
2018-08-10T02:40:37.933Z,5.77
2018-08-10T02:40:50.508Z,5.77
2018-08-10T02:41:03.105Z,5.77
2018-08-10T02:41:15.684Z,5.77
2018-08-10T02:41:28.299Z,5.77
2018-08-10T02:41:40.868Z,5.77
2018-08-10T02:41:53.442Z,5.77
2018-08-10T02:42:05.986Z,5.77
2018-08-10T02:42:18.522Z,5.77
2018-08-10T02:42:31.066Z,5.77
2018-08-10T02:42:43.619Z,5.77
2018-08-10T02:42:56.212Z,5.77
2018-08-10T02:43:08.752Z,5.77
2018-08-10T02:43:21.279Z,5.77
2018-08-10T02:43:33.832Z,5.77
2018-08-10T02:43:46.373Z,5.77
2018-08-10T02:43:58.888Z,5.77
2018-08-10T02:44:11.498Z,5.77
2018-08-10T02:44:24.135Z,5.77
2018-08-10T02:44:36.709Z,5.77
2018-08-10T02:44:49.247Z,5.77
2018-08-10T02:45:01.768Z,5.77
2018-08-10T02:45:14.342Z,5.77
2018-08-10T02:45:26.895Z,5.77
2018-08-10T02:45:39.481Z,5.77
2018-08-10T02:45:52.031Z,5.77
2018-08-10T02:46:04.580Z,5.77
2018-08-10T02:46:17.135Z,5.45
2018-08-10T02:46:29.735Z,5.45
2018-08-10T02:46:42.276Z,5.45
2018-08-10T02:46:54.805Z,5.45
2018-08-10T02:47:07.402Z,5.45
2018-08-10T02:47:19.911Z,5.45
2018-08-10T02:47:32.479Z,5.45
2018-08-10T02:47:45.050Z,5.45
2018-08-10T02:47:57.583Z,5.45
2018-08-10T02:48:10.138Z,5.45
2018-08-10T02:48:22.852Z,5.45
2018-08-10T02:48:35.401Z,5.45
2018-08-10T02:48:47.947Z,5.45
2018-08-10T02:49:00.766Z,5.45
2018-08-10T02:49:13.432Z,5.45